Time;durP1;ratioP1;P1;durP2;ratioP2;P2;SDS_P1;SDS_P2;PMS_P1;PMS_P2;Temp;Humidity;BMP_temperature;BMP_pressure;BME280_temperature;BME280_humidity;BME280_pressure;Samples;Min_cycle;Max_cycle;Signal;HPM_P1;HPM_P2
2022/07/10 00:01:27;;;;;;;1.08;0.60;;;;;;;18.25;62.20;99855.84;4343119;33;34973;-80
2022/07/10 00:04:13;;;;;;;0.85;0.60;;;;;;;18.01;63.32;99848.47;4348241;32;34423;-81
2022/07/10 00:07:01;;;;;;;1.45;0.65;;;;;;;18.53;62.08;99852.19;4350198;32;34042;-81
2022/07/10 00:09:48;;;;;;;0.70;0.50;;;;;;;17.98;64.40;99835.34;4354839;32;34243;-80
2022/07/10 00:12:34;;;;;;;1.77;0.60;;;;;;;18.30;63.77;99841.72;4352077;32;35992;-80
2022/07/10 00:15:21;;;;;;;1.33;0.75;;;;;;;18.43;63.37;99832.13;4351102;32;33544;-79
2022/07/10 00:18:07;;;;;;;1.77;0.60;;;;;;;18.52;63.69;99833.91;4352170;32;34446;-81
2022/07/10 00:20:54;;;;;;;1.35;0.60;;;;;;;17.90;66.53;99847.41;4350017;32;34342;-80
2022/07/10 00:23:40;;;;;;;3.33;0.70;;;;;;;17.70;68.44;99836.16;4340176;32;35017;-81
2022/07/10 00:26:27;;;;;;;3.53;0.77;;;;;;;17.60;69.29;99836.66;4342589;32;34861;-79
2022/07/10 00:29:14;;;;;;;2.17;0.60;;;;;;;17.36;70.42;99848.66;4355193;32;34308;-80
2022/07/10 00:32:00;;;;;;;1.25;0.70;;;;;;;17.95;68.68;99855.47;4348927;32;34781;-80
2022/07/10 00:34:47;;;;;;;1.33;0.70;;;;;;;17.72;69.50;99839.38;4350765;32;34995;-80
2022/07/10 00:37:33;;;;;;;2.80;0.85;;;;;;;17.71;69.89;99835.00;4352413;32;34435;-80
2022/07/10 00:40:20;;;;;;;2.25;0.70;;;;;;;18.01;68.83;99839.38;4345262;32;34332;-81
2022/07/10 00:43:09;;;;;;;1.50;0.80;;;;;;;17.48;71.11;99856.91;4353664;32;35222;-80
2022/07/10 00:45:55;;;;;;;3.37;0.90;;;;;;;17.42;71.47;99850.03;4336771;32;34555;-83
2022/07/10 00:48:41;;;;;;;1.95;0.95;;;;;;;17.50;71.84;99840.75;4349324;32;34678;-81
2022/07/10 00:51:29;;;;;;;2.00;0.80;;;;;;;17.44;72.19;99847.69;4352500;32;34315;-80
2022/07/10 00:54:16;;;;;;;2.22;0.60;;;;;;;17.77;71.22;99839.13;4334494;32;34586;-79
2022/07/10 00:57:05;;;;;;;0.75;0.60;;;;;;;17.72;71.25;99847.69;4349207;32;35028;-81
2022/07/10 00:59:52;;;;;;;2.80;0.80;;;;;;;17.52;72.48;99835.66;4340047;32;35956;-79
2022/07/10 01:02:43;;;;;;;1.83;0.95;;;;;;;17.91;71.14;99830.41;4348461;32;34987;-80
2022/07/10 01:05:29;;;;;;;1.30;0.65;;;;;;;17.89;71.23;99832.72;4344189;32;35309;-79
2022/07/10 01:08:15;;;;;;;0.75;0.70;;;;;;;17.16;75.69;99842.16;4351618;32;35959;-80
2022/07/10 01:11:01;;;;;;;1.87;0.95;;;;;;;17.46;75.16;99826.00;4349488;32;34965;-79
2022/07/10 01:13:48;;;;;;;2.75;0.90;;;;;;;17.08;77.35;99835.59;4353713;32;34680;-80
2022/07/10 01:16:34;;;;;;;1.50;0.88;;;;;;;17.40;76.31;99838.47;4341466;32;34563;-80
2022/07/10 01:19:20;;;;;;;4.20;0.90;;;;;;;17.96;73.61;99834.91;4351447;32;36013;-80
2022/07/10 01:22:07;;;;;;;1.70;0.80;;;;;;;17.25;76.87;99836.47;4351653;32;34988;-80
2022/07/10 01:24:54;;;;;;;0.82;0.70;;;;;;;17.38;76.43;99840.78;4342341;32;34812;-80
2022/07/10 01:27:41;;;;;;;1.80;1.00;;;;;;;17.45;75.84;99841.00;4349596;32;34610;-80
2022/07/10 01:30:27;;;;;;;1.65;0.95;;;;;;;17.43;75.42;99843.31;4349275;32;34128;-80
2022/07/10 01:33:14;;;;;;;1.35;0.90;;;;;;;17.19;76.73;99835.91;4350770;32;35903;-79
2022/07/10 01:36:00;;;;;;;2.62;0.70;;;;;;;17.02;78.01;99842.53;4342251;32;35295;-81
2022/07/10 01:38:47;;;;;;;1.58;0.95;;;;;;;17.03;77.38;99840.56;4352761;32;35257;-81
2022/07/10 01:41:33;;;;;;;2.92;0.93;;;;;;;16.94;77.72;99837.94;4349447;32;34618;-79
2022/07/10 01:44:20;;;;;;;2.20;1.00;;;;;;;16.74;79.16;99834.13;4334453;32;35749;-79
2022/07/10 01:47:06;;;;;;;3.80;1.60;;;;;;;16.62;80.04;99821.09;4349411;32;34434;-79
2022/07/10 01:49:53;;;;;;;1.92;1.00;;;;;;;16.67;80.33;99824.78;4352423;32;34666;-80
2022/07/10 01:52:40;;;;;;;2.08;0.90;;;;;;;16.58;81.29;99822.94;4337479;32;35968;-79
2022/07/10 01:55:26;;;;;;;3.42;1.08;;;;;;;16.43;82.00;99820.88;4346126;32;34570;-80
2022/07/10 01:58:13;;;;;;;2.30;1.10;;;;;;;16.69;80.07;99808.66;4343235;32;34265;-79
2022/07/10 02:01:00;;;;;;;2.05;1.00;;;;;;;16.53;80.90;99814.88;4353371;32;34720;-79
2022/07/10 02:06:51;;;;;;;1.95;1.15;;;;;;;16.79;79.22;99805.41;4353076;32;34968;-80
2022/07/10 02:09:39;;;;;;;1.60;0.93;;;;;;;16.85;79.23;99807.62;4348929;32;34993;-79
2022/07/10 02:12:25;;;;;;;1.23;0.90;;;;;;;16.87;78.42;99810.81;4334548;32;34202;-79
2022/07/10 02:15:11;;;;;;;3.62;1.27;;;;;;;16.88;78.64;99806.12;4353780;32;35998;-80
2022/07/10 02:17:58;;;;;;;3.45;1.15;;;;;;;16.88;78.76;99803.34;4346751;32;34897;-80
2022/07/10 02:20:44;;;;;;;2.90;1.30;;;;;;;16.89;79.83;99813.25;4353061;32;34416;-79
2022/07/10 02:23:30;;;;;;;1.73;0.98;;;;;;;16.35;81.82;99816.25;4350686;32;34686;-79
2022/07/10 02:26:17;;;;;;;2.03;1.10;;;;;;;16.68;80.46;99807.00;4352863;32;35939;-79
2022/07/10 02:29:03;;;;;;;1.92;1.00;;;;;;;16.62;81.23;99798.97;4345095;32;35010;-80
2022/07/10 02:31:49;;;;;;;2.75;1.73;;;;;;;16.78;79.84;99812.91;4347165;32;34078;-79
2022/07/10 02:34:36;;;;;;;3.28;1.30;;;;;;;16.56;81.68;99807.84;4354383;32;35533;-79
2022/07/10 02:37:22;;;;;;;1.75;1.35;;;;;;;16.29;82.45;99801.84;4353567;32;34967;-79
2022/07/10 02:40:09;;;;;;;1.70;1.00;;;;;;;16.40;82.76;99803.03;4352356;32;34430;-79
2022/07/10 02:42:55;;;;;;;1.62;1.27;;;;;;;16.23;83.51;99800.47;4351167;32;34590;-79
2022/07/10 02:45:42;;;;;;;1.45;1.10;;;;;;;16.06;84.64;99797.94;4353515;32;34635;-79
2022/07/10 02:48:32;;;;;;;2.08;1.30;;;;;;;15.96;86.38;99794.44;4353262;32;35046;-79
2022/07/10 02:51:18;;;;;;;1.60;1.25;;;;;;;15.94;86.61;99790.44;4352747;32;35807;-79
2022/07/10 02:54:05;;;;;;;3.75;1.30;;;;;;;16.22;83.74;99795.28;4348834;32;35210;-78
2022/07/10 02:56:51;;;;;;;1.95;1.20;;;;;;;16.39;83.85;99795.06;4339445;32;34526;-78
2022/07/10 02:59:37;;;;;;;2.95;1.48;;;;;;;15.43;89.25;99803.63;4352760;32;35057;-78
2022/07/10 03:02:24;;;;;;;2.15;1.40;;;;;;;15.84;86.99;99801.94;4343170;32;34791;-78
2022/07/10 03:05:10;;;;;;;2.30;1.45;;;;;;;15.47;89.07;99790.75;4348152;32;34334;-78
2022/07/10 03:07:56;;;;;;;1.75;1.30;;;;;;;15.77;nan;99785.09;4344686;32;34565;-78
2022/07/10 03:10:42;;;;;;;3.67;1.60;;;;;;;15.67;88.81;99792.63;4352930;32;34682;-78
2022/07/10 03:13:28;;;;;;;2.97;1.67;;;;;;;15.45;89.91;99793.03;4353060;32;34480;-78
2022/07/10 03:16:15;;;;;;;2.33;1.42;;;;;;;15.63;89.34;99791.72;4351785;32;34329;-79
2022/07/10 03:19:01;;;;;;;2.65;1.62;;;;;;;15.69;88.76;99787.63;4341290;32;34614;-78
2022/07/10 03:21:47;;;;;;;3.15;1.42;;;;;;;15.46;90.73;99789.13;4351628;32;35068;-78
2022/07/10 03:24:34;;;;;;;2.53;1.62;;;;;;;15.56;90.35;99780.41;4340841;32;35707;-78
2022/07/10 03:27:20;;;;;;;2.55;1.50;;;;;;;15.38;90.95;99784.50;4352611;32;34180;-77
2022/07/10 03:30:07;;;;;;;2.78;1.58;;;;;;;15.71;89.52;99779.81;4353397;32;34208;-79
2022/07/10 03:32:53;;;;;;;3.05;1.67;;;;;;;15.28;91.88;99774.66;4351316;32;34991;-79
2022/07/10 03:35:39;;;;;;;4.32;1.73;;;;;;;15.41;92.07;99776.34;4354651;32;34684;-79
2022/07/10 03:38:26;;;;;;;2.53;1.50;;;;;;;15.51;91.42;99766.81;4343003;32;35198;-78
2022/07/10 03:41:15;;;;;;;3.17;1.83;;;;;;;15.48;90.75;99761.97;4355162;32;35599;-79
2022/07/10 03:44:01;;;;;;;3.12;1.70;;;;;;;15.54;91.62;99766.16;4338062;32;36025;-78
2022/07/10 03:46:48;;;;;;;1.77;1.30;;;;;;;15.93;88.91;99775.00;4348274;32;35691;-79
2022/07/10 03:49:34;;;;;;;3.78;1.90;;;;;;;15.94;88.74;99768.34;4344618;32;35294;-80
2022/07/10 03:52:20;;;;;;;3.67;1.73;;;;;;;15.52;91.07;99762.91;4355200;32;34681;-79
2022/07/10 03:55:07;;;;;;;2.95;1.92;;;;;;;15.50;92.04;99765.22;4354295;32;34928;-79
2022/07/10 03:57:54;;;;;;;2.72;1.70;;;;;;;14.95;96.04;99766.38;4351335;32;35359;-78
2022/07/10 04:00:42;;;;;;;2.78;1.80;;;;;;;15.43;94.27;99767.72;4352618;32;34006;-78
2022/07/10 04:03:28;;;;;;;2.85;1.85;;;;;;;15.48;93.31;99764.72;4355700;32;35282;-78
2022/07/10 04:06:15;;;;;;;3.47;1.60;;;;;;;15.59;92.85;99767.88;4350933;32;34944;-79
2022/07/10 04:09:01;;;;;;;2.80;1.73;;;;;;;15.56;93.36;99758.31;4354705;32;34907;-78
2022/07/10 04:11:47;;;;;;;2.53;1.55;;;;;;;15.72;92.36;99755.75;4347614;32;34367;-78
2022/07/10 04:14:34;;;;;;;3.05;1.87;;;;;;;15.49;93.75;99758.09;4353190;32;35593;-79
2022/07/10 04:17:20;;;;;;;2.50;1.70;;;;;;;15.61;92.71;99754.53;4353262;32;34932;-80
2022/07/10 04:20:07;;;;;;;3.72;1.62;;;;;;;15.71;92.20;99752.19;4345037;32;34904;-79
2022/07/10 04:22:54;;;;;;;5.45;2.03;;;;;;;15.62;91.70;99756.16;4341763;32;34997;-78
2022/07/10 04:25:40;;;;;;;4.10;2.00;;;;;;;15.56;93.10;99750.03;4354104;32;34593;-78
2022/07/10 04:28:27;;;;;;;3.17;2.10;;;;;;;15.54;93.60;99744.06;4350233;32;35045;-79
2022/07/10 04:31:13;;;;;;;3.20;2.17;;;;;;;15.46;94.37;99740.25;4351326;32;35448;-79
2022/07/10 04:33:59;;;;;;;3.00;1.90;;;;;;;15.14;96.82;99741.87;4354859;32;34129;-78
2022/07/10 04:36:46;;;;;;;3.87;1.92;;;;;;;15.66;94.12;99746.84;4353895;32;34593;-80
2022/07/10 04:39:33;;;;;;;3.78;2.08;;;;;;;15.96;92.65;99739.19;4353185;32;36024;-80
2022/07/10 04:42:20;;;;;;;4.32;1.90;;;;;;;15.58;93.77;99744.19;4350831;32;35739;-79
2022/07/10 04:45:06;;;;;;;5.55;2.20;;;;;;;16.41;89.31;99742.97;4351808;32;34386;-79
2022/07/10 04:47:53;;;;;;;3.95;2.08;;;;;;;15.47;94.70;99736.31;4351540;32;38947;-78
2022/07/10 04:50:39;;;;;;;3.60;2.17;;;;;;;15.36;95.56;99732.38;4339530;32;36025;-78
2022/07/10 04:53:25;;;;;;;3.35;2.08;;;;;;;15.82;93.54;99732.38;4350616;32;35803;-79
2022/07/10 04:56:12;;;;;;;2.85;1.80;;;;;;;16.04;92.71;99731.94;4347472;32;34429;-80
2022/07/10 04:58:58;;;;;;;3.75;2.05;;;;;;;16.21;90.90;99730.09;4351151;32;35555;-79
2022/07/10 05:01:44;;;;;;;3.35;1.70;;;;;;;16.48;89.72;99725.78;4351654;32;35046;-80
2022/07/10 05:04:31;;;;;;;3.37;1.70;;;;;;;16.28;89.86;99727.53;4344228;32;35705;-80
2022/07/10 05:07:17;;;;;;;2.58;1.83;;;;;;;16.33;89.33;99730.09;4346819;32;35228;-79
2022/07/10 05:10:04;;;;;;;3.90;1.80;;;;;;;16.21;90.50;99738.38;4352703;32;34283;-80
2022/07/10 05:12:50;;;;;;;4.07;2.03;;;;;;;16.40;88.95;99741.37;4347264;32;35955;-79
2022/07/10 05:15:36;;;;;;;2.80;2.05;;;;;;;16.48;88.63;99739.63;4352027;32;35875;-79
2022/07/10 05:18:23;;;;;;;4.07;1.90;;;;;;;16.29;87.59;99743.81;4353204;32;33890;-76
2022/07/10 05:21:10;;;;;;;6.53;2.40;;;;;;;16.47;88.77;99738.81;4356372;32;34463;-75
2022/07/10 05:23:56;;;;;;;3.97;1.90;;;;;;;16.58;88.16;99731.66;4345955;32;35171;-77
2022/07/10 05:26:43;;;;;;;4.93;2.00;;;;;;;16.60;88.08;99737.66;4347201;32;34566;-76
2022/07/10 05:29:29;;;;;;;4.25;2.08;;;;;;;16.84;86.87;99733.22;4338676;32;34307;-75
2022/07/10 05:32:16;;;;;;;3.37;2.03;;;;;;;16.25;88.21;99731.00;4349594;32;34688;-76
2022/07/10 05:35:02;;;;;;;3.20;1.90;;;;;;;16.36;87.43;99723.84;4343707;32;35884;-75
2022/07/10 05:37:48;;;;;;;3.92;2.10;;;;;;;16.60;87.29;99723.03;4350174;32;34651;-75
2022/07/10 05:40:35;;;;;;;5.00;2.00;;;;;;;16.95;84.51;99717.75;4344806;32;33984;-75
2022/07/10 05:43:21;;;;;;;2.97;1.90;;;;;;;16.96;84.56;99716.59;4355393;32;35567;-78
2022/07/10 05:46:08;;;;;;;3.58;2.00;;;;;;;17.06;82.83;99705.00;4335896;32;35105;-75
2022/07/10 05:48:54;;;;;;;4.55;2.10;;;;;;;17.46;81.52;99723.50;4340411;32;35665;-74
2022/07/10 05:51:40;;;;;;;4.53;1.95;;;;;;;17.51;80.89;99716.91;4355457;32;34463;-76
2022/07/10 05:54:30;;;;;;;3.60;1.77;;;;;;;16.62;85.08;99717.91;4342580;32;35551;-76
2022/07/10 05:57:17;;;;;;;3.12;1.98;;;;;;;17.28;82.44;99708.38;4352541;32;35861;-75
2022/07/10 06:00:05;;;;;;;3.17;2.00;;;;;;;17.40;79.82;99716.63;4347348;32;35432;-74
2022/07/10 06:02:56;;;;;;;3.12;1.85;;;;;;;17.60;78.78;99705.66;4348845;32;34455;-75
2022/07/10 06:05:42;;;;;;;4.50;1.90;;;;;;;17.70;77.58;99716.19;4350844;32;34641;-75
2022/07/10 06:08:28;;;;;;;3.25;1.75;;;;;;;17.87;76.51;99718.66;4338614;32;34531;-76
2022/07/10 06:11:16;;;;;;;3.12;1.62;;;;;;;17.71;76.92;99710.31;4352878;32;34500;-77
2022/07/10 06:14:02;;;;;;;3.80;1.75;;;;;;;17.75;77.35;99702.88;4346245;32;35249;-76
2022/07/10 06:16:48;;;;;;;3.65;1.95;;;;;;;17.80;76.39;99706.59;4337565;32;35480;-78
2022/07/10 06:19:34;;;;;;;3.87;1.85;;;;;;;17.52;76.95;99699.91;4348640;32;36008;-76
2022/07/10 06:22:30;;;;;;;3.85;1.70;;;;;;;18.11;73.61;99711.31;4338605;32;34868;-77
2022/07/10 06:25:16;;;;;;;3.05;1.70;;;;;;;18.32;73.17;99717.34;4339282;32;34299;-76
2022/07/10 06:28:02;;;;;;;4.20;1.70;;;;;;;18.83;69.82;99708.97;4355299;32;35395;-78
2022/07/10 06:30:48;;;;;;;3.15;1.83;;;;;;;17.96;73.31;99721.25;4346446;32;35503;-78
2022/07/10 06:33:35;;;;;;;3.37;1.77;;;;;;;18.05;73.78;99721.06;4355140;32;35487;-78
2022/07/10 06:36:21;;;;;;;3.15;1.73;;;;;;;18.15;72.71;99717.72;4344071;32;34422;-77
2022/07/10 06:39:12;;;;;;;3.20;1.73;;;;;;;18.77;70.59;99710.44;4350000;32;35441;-77
2022/07/10 06:42:00;;;;;;;3.72;1.52;;;;;;;18.68;68.79;99718.16;4351955;32;34575;-76
2022/07/10 06:44:46;;;;;;;3.20;1.60;;;;;;;18.74;66.99;99716.72;4349640;32;33803;-77
2022/07/10 06:50:43;;;;;;;4.07;1.87;;;;;;;19.01;66.67;99712.13;4351921;32;34902;-78
2022/07/10 06:53:29;;;;;;;4.60;1.80;;;;;;;19.26;65.82;99706.25;4350567;32;36044;-78
2022/07/10 06:56:16;;;;;;;3.12;1.80;;;;;;;19.86;63.91;99709.31;4347582;32;35835;-77
2022/07/10 06:59:02;;;;;;;4.07;1.75;;;;;;;19.20;64.17;99708.53;4343878;32;34279;-82
2022/07/10 07:01:48;;;;;;;2.65;1.73;;;;;;;18.99;65.97;99727.53;4349091;32;34225;-77
2022/07/10 07:04:35;;;;;;;3.10;1.70;;;;;;;19.00;67.42;99709.72;4346763;32;35890;-79
2022/07/10 07:07:21;;;;;;;4.30;1.90;;;;;;;19.16;66.32;99709.63;4341204;32;34909;-78
2022/07/10 07:10:10;;;;;;;2.37;1.55;;;;;;;19.45;65.07;99710.97;4349105;32;34415;-78
2022/07/10 07:12:57;;;;;;;2.85;1.20;;;;;;;19.08;62.83;99700.34;4349900;32;35505;-79
2022/07/10 07:15:49;;;;;;;2.95;1.40;;;;;;;19.50;61.89;99716.22;4334282;32;34940;-76
2022/07/10 07:18:47;;;;;;;3.17;1.30;;;;;;;19.85;59.61;99710.50;4353422;32;35610;-77
2022/07/10 07:24:38;;;;;;;2.15;1.42;;;;;;;19.84;58.47;99705.34;4356527;32;34228;-79
2022/07/10 07:27:25;;;;;;;4.00;1.55;;;;;;;20.22;58.37;99696.78;4335698;32;34933;-78
2022/07/10 07:30:17;;;;;;;2.97;1.40;;;;;;;20.41;57.35;99704.25;4352727;32;35835;-79
2022/07/10 07:33:03;;;;;;;2.35;1.30;;;;;;;19.92;56.88;99702.31;4343644;32;33938;-79
2022/07/10 07:35:50;;;;;;;1.85;1.12;;;;;;;20.46;54.36;99708.66;4346060;32;34255;-79
2022/07/10 07:38:36;;;;;;;1.58;1.00;;;;;;;20.96;52.07;99705.78;4353047;32;34618;-79
2022/07/10 07:41:23;;;;;;;2.08;0.98;;;;;;;20.40;51.12;99702.63;4353156;32;34862;-78
2022/07/10 07:44:09;;;;;;;2.28;1.00;;;;;;;20.79;51.24;99709.94;4352027;32;34239;-78
2022/07/10 07:46:56;;;;;;;2.00;1.02;;;;;;;20.80;52.34;99711.53;4352222;32;35293;-78
2022/07/10 07:49:42;;;;;;;4.82;1.08;;;;;;;20.66;49.93;99707.41;4353258;32;35991;-78
2022/07/10 07:52:28;;;;;;;4.00;1.10;;;;;;;20.96;49.57;99714.13;4355059;32;35858;-79
2022/07/10 07:55:16;;;;;;;2.78;1.48;;;;;;;20.63;51.71;99718.47;4347107;32;34285;-80
2022/07/10 07:58:03;;;;;;;1.17;0.90;;;;;;;20.87;53.26;99711.63;4347547;32;35045;-81
2022/07/10 08:00:49;;;;;;;2.83;1.10;;;;;;;20.92;50.29;99708.53;4340509;32;36001;-80
2022/07/10 08:03:36;;;;;;;1.90;1.10;;;;;;;21.07;50.59;99718.66;4340280;32;34864;-79
2022/07/10 08:06:42;;;;;;;2.45;1.05;;;;;;;21.00;50.90;99710.19;4347186;32;34293;-78
2022/07/10 08:09:28;;;;;;;1.45;1.00;;;;;;;21.39;49.01;99709.06;4360575;32;35755;-77
2022/07/10 08:12:15;;;;;;;2.65;1.25;;;;;;;21.31;48.56;99697.00;4358206;32;35024;-79
2022/07/10 08:15:01;;;;;;;1.40;1.00;;;;;;;21.59;49.07;99704.09;4355630;32;35721;-80
2022/07/10 08:17:49;;;;;;;2.22;1.20;;;;;;;22.07;47.02;99698.53;4343174;32;35332;-80
2022/07/10 08:20:35;;;;;;;4.15;1.17;;;;;;;22.07;47.45;99696.53;4356242;32;34442;-79
2022/07/10 08:23:21;;;;;;;2.55;1.10;;;;;;;21.85;46.26;99695.56;4357628;32;35053;-79
2022/07/10 08:26:08;;;;;;;3.10;1.08;;;;;;;21.98;46.01;99702.44;4337819;32;34809;-78
2022/07/10 08:28:54;;;;;;;3.37;1.00;;;;;;;22.28;45.58;99693.09;4357330;32;33979;-79
2022/07/10 08:31:41;;;;;;;2.47;1.20;;;;;;;21.69;46.61;99695.03;4359266;32;35606;-78
2022/07/10 08:34:36;;;;;;;2.10;1.20;;;;;;;21.89;46.51;99687.22;4348703;32;34906;-78
2022/07/10 08:37:23;;;;;;;;;;;;;;;21.79;47.67;99699.88;4360458;32;34462;-78
2022/07/10 08:40:12;;;;;;;2.65;1.27;;;;;;;21.86;45.79;99691.59;4356943;32;34993;-77
2022/07/10 08:42:59;;;;;;;2.15;1.00;;;;;;;22.05;45.69;99689.72;4357257;32;34637;-78
2022/07/10 08:45:46;;;;;;;4.55;1.50;;;;;;;22.32;43.43;99682.78;4359494;32;36025;-80
2022/07/10 08:48:36;;;;;;;2.75;1.17;;;;;;;21.36;46.04;99687.50;4358378;32;35782;-83
2022/07/10 08:51:25;;;;;;;3.45;1.25;;;;;;;21.87;45.89;99695.19;4356599;32;34467;-80
2022/07/10 08:54:14;;;;;;;1.25;1.05;;;;;;;22.27;44.16;99690.72;4345762;32;34641;-81
2022/07/10 08:57:07;;;;;;;2.60;1.10;;;;;;;21.98;44.12;99684.91;4357553;32;34918;-79
2022/07/10 08:59:54;;;;;;;1.95;1.15;;;;;;;22.19;43.95;99687.06;4345945;32;34877;-78
2022/07/10 09:02:40;;;;;;;1.20;0.80;;;;;;;22.14;42.77;99673.44;4344036;32;34937;-80
2022/07/10 09:05:27;;;;;;;3.03;1.15;;;;;;;21.72;42.59;99680.31;4328611;33;36093;-79
2022/07/10 09:08:32;;;;;;;4.45;1.10;;;;;;;21.95;42.07;99675.31;4338539;33;35662;-80
2022/07/10 09:11:19;;;;;;;2.55;1.05;;;;;;;22.97;41.50;99671.94;4336779;32;36468;-82
2022/07/10 09:14:08;;;;;;;2.17;0.90;;;;;;;22.78;40.48;99671.03;4328940;32;33939;-80
2022/07/10 09:16:54;;;;;;;2.50;1.40;;;;;;;22.63;40.45;99672.97;4339469;32;35494;-82
2022/07/10 09:19:41;;;;;;;1.30;0.80;;;;;;;23.04;40.00;99667.16;4342047;32;34668;-84
2022/07/10 09:22:30;;;;;;;3.12;0.77;;;;;;;22.71;39.90;99682.16;4341982;32;34849;-80
2022/07/10 09:25:16;;;;;;;1.73;0.90;;;;;;;22.48;40.80;99678.88;4336357;33;35392;-82
2022/07/10 09:28:05;;;;;;;1.45;0.80;;;;;;;22.75;40.23;99669.03;4346511;33;34647;-80
2022/07/10 09:30:51;;;;;;;4.18;0.80;;;;;;;22.98;39.50;99679.13;4336278;33;36015;-80
2022/07/10 09:33:40;;;;;;;1.87;1.00;;;;;;;22.85;38.96;99664.69;4345121;33;34891;-81
2022/07/10 09:36:26;;;;;;;3.47;0.90;;;;;;;23.07;39.61;99687.94;4339595;33;35208;-79
2022/07/10 09:39:12;;;;;;;0.75;0.60;;;;;;;23.11;40.00;99683.97;4342846;33;34346;-79
2022/07/10 09:41:58;;;;;;;1.12;0.73;;;;;;;23.34;39.34;99675.25;4335728;33;34934;-81
2022/07/10 09:44:44;;;;;;;1.83;1.10;;;;;;;22.69;41.48;99679.00;4339740;33;35463;-82
2022/07/10 09:47:31;;;;;;;2.92;0.98;;;;;;;22.48;43.98;99673.28;4344405;32;34972;-81
2022/07/10 09:50:29;;;;;;;1.37;0.93;;;;;;;22.84;42.01;99686.22;4346129;32;35600;-84
2022/07/10 09:53:15;;;;;;;3.12;1.55;;;;;;;22.78;40.46;99676.62;4345867;33;34359;-79
2022/07/10 09:56:03;;;;;;;1.08;0.88;;;;;;;23.17;40.71;99676.00;4345065;32;35044;-81
2022/07/10 09:58:52;;;;;;;4.82;0.93;;;;;;;23.18;40.64;99674.00;4346223;33;34103;-82
2022/07/10 10:01:46;;;;;;;0.90;0.70;;;;;;;23.22;40.43;99672.00;4336835;33;35196;-81
2022/07/10 10:04:33;;;;;;;0.90;0.80;;;;;;;23.34;39.17;99663.25;4343438;32;34993;-81
2022/07/10 10:07:25;;;;;;;3.15;0.93;;;;;;;23.20;39.43;99650.06;4352710;32;35385;-82
2022/07/10 10:10:12;;;;;;;2.60;0.60;;;;;;;23.34;40.16;99652.88;4341640;32;35312;-80
2022/07/10 10:13:00;;;;;;;1.20;0.82;;;;;;;23.84;38.15;99643.72;4354479;32;35149;-82
2022/07/10 10:15:51;;;;;;;2.97;0.70;;;;;;;23.96;37.61;99642.50;4350267;32;35275;-87
2022/07/10 10:20:37;;;;;;;1.00;0.50;;;;;;;23.81;38.48;99643.72;4345629;32;35622;-82
2022/07/10 10:21:44;;;;;;;1.90;0.70;;;;;;;23.45;37.91;99641.72;4349755;32;34331;-83
2022/07/10 10:24:31;;;;;;;1.67;0.80;;;;;;;23.40;37.66;99639.31;4358341;32;35394;-80
2022/07/10 10:27:20;;;;;;;2.03;0.60;;;;;;;24.03;38.22;99631.31;4342532;32;35083;-82
2022/07/10 10:30:07;;;;;;;0.80;0.50;;;;;;;23.99;37.76;99641.69;4340384;32;35643;-80
2022/07/10 10:32:53;;;;;;;4.90;0.77;;;;;;;23.88;36.88;99627.75;4346988;32;35227;-80
2022/07/10 10:35:47;;;;;;;0.95;0.60;;;;;;;24.43;33.49;99620.84;4354139;32;34634;-82
2022/07/10 10:38:55;;;;;;;1.67;0.70;;;;;;;24.53;33.26;99606.00;4358535;32;35027;-81
2022/07/10 10:41:47;;;;;;;1.37;0.82;;;;;;;24.65;34.42;99622.38;4354618;32;35699;-81
2022/07/10 10:44:33;;;;;;;1.60;0.85;;;;;;;24.46;34.71;99609.63;4348527;32;34334;-82
2022/07/10 10:47:19;;;;;;;1.30;0.70;;;;;;;23.93;36.24;99637.72;4343610;32;34559;-82
2022/07/10 10:50:06;;;;;;;2.42;0.85;;;;;;;23.94;35.96;99605.75;4351198;32;35024;-81
2022/07/10 10:53:01;;;;;;;3.92;0.80;;;;;;;24.48;36.02;99623.25;4344737;32;34166;-79
2022/07/10 10:56:17;;;;;;;1.12;0.70;;;;;;;23.86;37.83;99621.75;4357023;32;34387;-80
2022/07/10 10:59:07;;;;;;;1.23;0.80;;;;;;;23.84;38.63;99615.75;4354331;32;35656;-79
2022/07/10 11:02:29;;;;;;;6.62;0.90;;;;;;;24.01;37.55;99616.94;4342863;32;34775;-85
2022/07/10 11:05:19;;;;;;;3.35;1.00;;;;;;;23.86;38.06;99626.56;4346982;32;34882;-83
2022/07/10 11:08:07;;;;;;;2.60;0.70;;;;;;;24.11;35.18;99609.72;4354292;32;35361;-82
2022/07/10 11:10:54;;;;;;;3.00;0.62;;;;;;;23.93;34.83;99618.13;4353588;32;34344;-83
2022/07/10 11:13:41;;;;;;;1.27;0.55;;;;;;;23.51;35.12;99597.37;4347761;32;35612;-84
2022/07/10 11:16:27;;;;;;;1.25;0.60;;;;;;;24.19;34.09;99605.69;4342140;32;35312;-80
2022/07/10 11:19:18;;;;;;;1.90;0.68;;;;;;;24.13;34.73;99604.50;4353895;32;35209;-80
2022/07/10 11:22:32;;;;;;;3.62;1.10;;;;;;;24.70;33.29;99584.69;4343203;32;34625;-84
2022/07/10 11:25:43;;;;;;;4.20;1.00;;;;;;;24.11;36.14;99599.31;4344864;32;35012;-80
2022/07/10 11:28:54;;;;;;;8.82;1.20;;;;;;;23.10;38.81;99628.47;4343732;32;35662;-83
2022/07/10 11:31:44;;;;;;;4.25;0.77;;;;;;;22.56;39.90;99635.84;4343114;32;35356;-86
2022/07/10 11:34:35;;;;;;;2.87;0.73;;;;;;;22.96;37.61;99675.94;4338769;32;34473;-83
2022/07/10 11:37:23;;;;;;;2.03;0.80;;;;;;;22.16;38.81;99645.97;4347318;32;35073;-84
2022/07/10 11:40:11;;;;;;;2.80;0.90;;;;;;;21.83;39.43;99649.72;4350031;32;34874;-82
2022/07/10 11:42:59;;;;;;;4.95;0.98;;;;;;;21.84;40.63;99640.97;4345135;32;35405;-84
2022/07/10 11:45:45;;;;;;;2.37;0.60;;;;;;;20.91;42.03;99650.41;4354797;32;34272;-84
2022/07/10 11:48:38;;;;;;;1.70;0.80;;;;;;;21.11;42.12;99644.25;4356664;32;35323;-83
2022/07/10 11:51:26;;;;;;;4.43;0.80;;;;;;;20.71;43.41;99663.69;4348234;32;34815;-85
2022/07/10 11:54:18;;;;;;;2.45;0.90;;;;;;;20.67;44.43;99619.13;4359139;32;34362;-85
2022/07/10 11:57:06;;;;;;;1.17;0.88;;;;;;;20.56;45.86;99635.69;4344565;32;35706;-82
2022/07/10 11:59:52;;;;;;;5.25;0.80;;;;;;;20.88;45.49;99633.25;4328008;32;34974;-82
2022/07/10 12:02:39;;;;;;;1.40;0.75;;;;;;;21.48;43.58;99628.72;4355995;32;35998;-85
2022/07/10 12:05:36;;;;;;;1.80;0.85;;;;;;;22.37;41.82;99618.22;4356115;32;35293;-83
2022/07/10 12:08:23;;;;;;;3.00;0.70;;;;;;;21.98;42.82;99627.13;4344809;32;34572;-84
2022/07/10 12:11:18;;;;;;;1.23;0.50;;;;;;;22.38;42.04;99617.00;4353963;32;34010;-83
2022/07/10 12:14:19;;;;;;;0.75;0.50;;;;;;;23.22;35.21;99622.50;4349578;32;34666;-80
2022/07/10 12:17:12;;;;;;;3.60;0.47;;;;;;;23.31;34.79;99608.16;4349097;32;34196;-81
2022/07/10 12:19:58;;;;;;;0.98;0.45;;;;;;;23.72;33.85;99613.37;4343839;32;34586;-84
2022/07/10 12:22:44;;;;;;;3.25;0.45;;;;;;;23.57;34.17;99610.53;4342308;32;35050;-82
2022/07/10 12:25:32;;;;;;;1.60;0.43;;;;;;;24.24;33.81;99622.84;4352041;32;34867;-87
2022/07/10 12:28:18;;;;;;;0.90;0.40;;;;;;;23.46;34.79;99625.72;4349184;32;34124;-84
2022/07/10 12:31:06;;;;;;;11.98;1.40;;;;;;;23.75;34.97;99618.94;4349046;32;34590;-84
2022/07/10 12:34:01;;;;;;;0.98;0.55;;;;;;;23.62;35.79;99623.31;4342292;32;35025;-84
2022/07/10 12:36:52;;;;;;;1.87;0.70;;;;;;;23.34;36.63;99619.31;4346482;32;36280;-85
2022/07/10 12:39:50;;;;;;;1.23;0.70;;;;;;;23.49;36.19;99636.91;4351848;32;34170;-87
2022/07/10 12:42:36;;;;;;;4.10;0.60;;;;;;;23.57;35.83;99632.12;4351771;32;34201;-87
2022/07/10 12:45:23;;;;;;;2.45;0.60;;;;;;;23.20;35.86;99633.28;4348766;32;35564;-86
2022/07/10 12:48:22;;;;;;;1.65;0.60;;;;;;;22.81;35.04;99641.53;4354279;32;35778;-83
2022/07/10 12:51:29;;;;;;;1.83;0.52;;;;;;;22.24;37.97;99653.22;4347079;32;35248;-86
2022/07/10 12:54:36;;;;;;;2.55;0.82;;;;;;;22.48;37.21;99637.00;4354437;32;35338;-85
2022/07/10 12:57:23;;;;;;;3.05;0.60;;;;;;;21.44;38.97;99651.00;4347036;32;35874;-82
2022/07/10 13:00:13;;;;;;;4.05;0.80;;;;;;;22.15;38.08;99649.97;4344664;32;34855;-85
2022/07/10 13:03:03;;;;;;;1.33;0.60;;;;;;;22.13;37.85;99653.13;4353437;32;34578;-85
2022/07/10 13:05:50;;;;;;;0.83;0.63;;;;;;;21.52;39.70;99655.44;4333243;33;34686;-83
2022/07/10 13:08:46;;;;;;;1.50;0.60;;;;;;;21.70;40.14;99638.06;4334069;33;35906;-84
2022/07/10 13:11:33;;;;;;;1.33;0.73;;;;;;;22.56;38.68;99638.62;4341897;33;34866;-83
2022/07/10 13:14:20;;;;;;;0.80;0.62;;;;;;;23.05;37.29;99645.63;4342394;32;34302;-83
2022/07/10 13:17:06;;;;;;;4.20;0.75;;;;;;;23.21;36.40;99640.47;4334212;33;33214;-84
2022/07/10 13:19:53;;;;;;;1.20;0.70;;;;;;;22.29;38.39;99650.06;4344844;33;34979;-82
2022/07/10 13:22:39;;;;;;;1.83;0.57;;;;;;;22.00;37.50;99661.03;4348068;33;35308;-81